Time;durP1;ratioP1;P1;durP2;ratioP2;P2;SDS_P1;SDS_P2;PMS_P1;PMS_P2;Temp;Humidity;BMP_temperature;BMP_pressure;BME280_temperature;BME280_humidity;BME280_pressure;Samples;Min_cycle;Max_cycle;Signal;HPM_P1;HPM_P2
2022/06/22 00:02:01;;;;;;;8.68;3.33;;;;;;;25.70;39.94;101675.63;4212420;28;20098;-76
2022/06/22 00:04:04;;;;;;;7.18;2.90;;;;;;;25.76;39.91;101684.88;4211635;28;20445;-73
2022/06/22 00:06:05;;;;;;;4.43;2.90;;;;;;;25.74;39.67;101693.50;4233415;28;20475;-74
2022/06/22 00:08:13;;;;;;;10.68;3.25;;;;;;;25.74;39.78;101699.13;4210044;28;20074;-74
2022/06/22 00:10:20;;;;;;;5.32;2.80;;;;;;;25.74;39.44;101698.28;4211390;28;20496;-73
2022/06/22 00:12:28;;;;;;;8.05;2.90;;;;;;;25.73;39.56;101686.25;4215282;28;20036;-74
2022/06/22 00:14:41;;;;;;;9.45;2.85;;;;;;;25.71;39.68;101682.09;4217186;28;20040;-74
2022/06/22 00:16:50;;;;;;;6.15;3.38;;;;;;;25.72;39.37;101684.59;4211642;28;20097;-71
2022/06/22 00:18:52;;;;;;;11.23;3.42;;;;;;;25.71;39.30;101691.31;4207755;28;20040;-74
2022/06/22 00:20:57;;;;;;;5.50;3.05;;;;;;;25.71;39.16;101696.94;4203833;28;20459;-73
2022/06/22 00:23:13;;;;;;;5.60;2.92;;;;;;;25.71;39.55;101698.91;4215077;28;20086;-70
2022/06/22 00:25:32;;;;;;;9.25;2.75;;;;;;;25.70;39.60;101691.59;4215743;28;20044;-74
2022/06/22 00:27:36;;;;;;;7.20;3.00;;;;;;;25.72;39.18;101678.13;4214766;28;20044;-73
2022/06/22 00:29:38;;;;;;;7.68;2.90;;;;;;;25.70;39.53;101667.19;4215533;28;20036;-73
2022/06/22 00:32:00;;;;;;;6.82;2.88;;;;;;;25.67;39.59;101648.19;4215539;28;20035;-73
2022/06/22 00:34:04;;;;;;;6.68;2.80;;;;;;;25.70;39.45;101672.81;4215633;28;20560;-73
2022/06/22 00:36:15;;;;;;;6.55;2.80;;;;;;;25.63;39.59;101686.34;4214316;28;20040;-73
2022/06/22 00:38:21;;;;;;;8.50;3.22;;;;;;;25.69;39.66;101696.38;4212516;28;20097;-74
2022/06/22 00:40:22;;;;;;;8.43;2.97;;;;;;;25.71;39.55;101698.91;4213464;28;20441;-72
2022/06/22 00:42:29;;;;;;;4.30;2.90;;;;;;;25.70;39.78;101712.06;4216318;28;20036;-74
2022/06/22 00:44:33;;;;;;;6.30;3.78;;;;;;;25.70;39.92;101709.25;4215927;28;20040;-73
2022/06/22 00:46:41;;;;;;;4.53;2.78;;;;;;;25.70;39.59;101709.25;4214636;28;20279;-74
2022/06/22 00:48:43;;;;;;;5.50;3.08;;;;;;;25.71;39.68;101715.72;4215765;28;20035;-73
2022/06/22 00:50:48;;;;;;;3.33;2.53;;;;;;;25.46;39.78;101678.38;4214487;28;20089;-73
2022/06/22 00:53:12;;;;;;;4.13;2.60;;;;;;;25.65;39.86;101717.72;4216027;28;20102;-74
2022/06/22 00:55:40;;;;;;;5.95;2.70;;;;;;;25.60;39.91;101698.97;4207895;28;20087;-73
2022/06/22 00:57:47;;;;;;;4.53;3.15;;;;;;;25.64;40.02;101698.41;4201339;28;20075;-74
2022/06/22 00:59:55;;;;;;;7.00;2.53;;;;;;;25.71;39.78;101705.34;4199734;28;20054;-74
2022/06/22 01:02:33;;;;;;;8.70;3.25;;;;;;;25.68;39.77;101708.72;4213815;28;20093;-73
2022/06/22 01:04:46;;;;;;;5.65;3.30;;;;;;;25.71;39.48;101710.94;4201025;28;20036;-73
2022/06/22 01:06:57;;;;;;;5.65;2.90;;;;;;;25.72;39.56;101729.44;4214606;28;20085;-74
2022/06/22 01:09:29;;;;;;;6.18;2.67;;;;;;;25.64;39.82;101718.84;4213411;28;20057;-73
2022/06/22 01:14:24;;;;;;;4.60;2.63;;;;;;;25.72;39.90;101725.78;4213913;28;20093;-73
2022/06/22 01:16:35;;;;;;;6.18;2.90;;;;;;;25.71;39.62;101722.16;4215973;28;20545;-73
2022/06/22 01:18:46;;;;;;;7.88;2.67;;;;;;;25.71;39.60;101715.72;4215510;28;20089;-73
2022/06/22 01:20:59;;;;;;;5.25;2.72;;;;;;;25.70;39.60;101712.06;4216240;28;20384;-74
2022/06/22 01:23:42;;;;;;;4.03;2.67;;;;;;;25.68;39.69;101708.72;4213013;28;20032;-74
2022/06/22 01:25:51;;;;;;;8.07;3.20;;;;;;;25.71;39.38;101710.13;4212872;28;20484;-73
2022/06/22 01:27:53;;;;;;;7.55;2.88;;;;;;;25.70;39.45;101714.84;4200788;28;20098;-74
2022/06/22 01:30:03;;;;;;;3.83;2.35;;;;;;;25.70;39.77;101714.03;4216404;28;20467;-72
2022/06/22 01:32:15;;;;;;;12.32;3.20;;;;;;;25.68;39.48;101716.31;4219491;28;20406;-74
2022/06/22 01:34:19;;;;;;;4.97;2.90;;;;;;;25.69;39.72;101727.22;4219129;28;20093;-73
2022/06/22 01:36:31;;;;;;;5.87;3.23;;;;;;;25.69;39.87;101717.97;4226367;28;20040;-73
2022/06/22 01:38:38;;;;;;;6.47;2.60;;;;;;;25.68;39.97;101721.91;4192803;28;20693;-73
2022/06/22 01:41:05;;;;;;;6.63;3.17;;;;;;;25.66;39.90;101725.00;4209558;28;20062;-73
2022/06/22 01:43:21;;;;;;;6.55;2.50;;;;;;;25.66;40.12;101716.59;4221057;28;20471;-73
2022/06/22 01:46:19;;;;;;;10.40;3.03;;;;;;;25.66;39.67;101724.16;4225388;28;20062;-73
2022/06/22 01:48:35;;;;;;;8.00;3.63;;;;;;;25.65;39.88;101706.50;4180565;28;20029;-74
2022/06/22 01:51:01;;;;;;;4.75;2.75;;;;;;;25.68;39.87;101717.13;4177351;28;20041;-74
2022/06/22 01:53:47;;;;;;;10.60;2.83;;;;;;;25.66;39.85;101722.22;4195610;28;20048;-72
2022/06/22 01:55:52;;;;;;;4.00;2.65;;;;;;;25.69;39.87;101724.41;4188034;28;20087;-73
2022/06/22 01:58:28;;;;;;;5.68;2.80;;;;;;;25.68;40.10;101725.53;4188673;28;20040;-74
2022/06/22 02:00:29;;;;;;;4.35;2.55;;;;;;;25.68;40.09;101717.13;4192956;28;20032;-73
2022/06/22 02:03:03;;;;;;;12.70;3.50;;;;;;;25.68;40.20;101719.09;4216640;28;20062;-73
2022/06/22 02:05:11;;;;;;;5.95;2.92;;;;;;;25.69;39.72;101718.78;4213474;28;20035;-71
2022/06/22 02:07:50;;;;;;;4.40;2.80;;;;;;;25.64;39.98;101721.66;4225208;28;20040;-72
2022/06/22 02:09:52;;;;;;;6.82;2.75;;;;;;;25.68;40.05;101716.31;4205037;28;20075;-73
2022/06/22 02:12:18;;;;;;;6.40;2.92;;;;;;;25.67;39.89;101725.84;4206068;28;20471;-73
2022/06/22 02:14:26;;;;;;;7.10;2.70;;;;;;;25.67;39.79;101718.28;4217685;28;20024;-72
2022/06/22 02:16:38;;;;;;;7.43;2.92;;;;;;;25.67;39.87;101715.47;4216803;28;20105;-72
2022/06/22 02:19:09;;;;;;;4.25;2.97;;;;;;;25.58;39.98;101706.03;4209503;28;20089;-73
2022/06/22 02:21:19;;;;;;;5.25;2.63;;;;;;;25.66;39.58;101713.81;4214680;28;20101;-75
2022/06/22 02:23:35;;;;;;;5.57;3.05;;;;;;;25.58;40.02;101711.63;4212350;28;20032;-75
2022/06/22 02:26:01;;;;;;;4.00;2.63;;;;;;;25.65;39.63;101717.72;4214859;28;20545;-74
2022/06/22 02:28:06;;;;;;;5.10;3.03;;;;;;;25.67;39.85;101714.63;4213809;28;20028;-74
2022/06/22 02:30:08;;;;;;;4.25;2.67;;;;;;;25.66;39.64;101713.81;4214074;28;20036;-75
2022/06/22 02:32:17;;;;;;;6.50;2.67;;;;;;;25.47;39.99;101685.66;4214223;28;20032;-75
2022/06/22 02:34:22;;;;;;;4.40;2.58;;;;;;;25.65;39.48;101706.50;4213869;28;20085;-74
2022/06/22 02:36:32;;;;;;;4.15;2.63;;;;;;;25.62;39.95;101693.09;4207087;28;20040;-75
2022/06/22 02:38:33;;;;;;;2.97;2.53;;;;;;;25.65;39.41;101692.50;4209252;28;20039;-74
2022/06/22 02:44:29;;;;;;;4.70;2.72;;;;;;;25.48;39.77;101675.31;4214250;28;20024;-74
2022/06/22 02:45:31;;;;;;;8.80;2.67;;;;;;;25.62;39.65;101700.69;4189692;28;20029;-75
2022/06/22 02:47:48;;;;;;;6.75;2.85;;;;;;;25.65;39.46;101700.06;4199210;28;20040;-75
2022/06/22 02:50:10;;;;;;;5.25;2.47;;;;;;;25.63;39.65;101705.97;4214507;28;20070;-75
2022/06/22 02:52:13;;;;;;;6.40;2.67;;;;;;;25.59;39.54;101704.88;4206099;28;20453;-74
2022/06/22 02:54:30;;;;;;;4.57;2.65;;;;;;;25.63;39.54;101708.78;4214700;28;20101;-71
2022/06/22 02:56:40;;;;;;;4.10;2.45;;;;;;;25.63;39.82;101703.16;4215103;28;20373;-75
2022/06/22 02:58:42;;;;;;;4.00;2.60;;;;;;;25.52;39.75;101684.75;4214029;28;20036;-73
2022/06/22 03:00:43;;;;;;;6.65;2.47;;;;;;;25.53;39.38;101689.25;4214341;28;20024;-76
2022/06/22 03:02:46;;;;;;;8.13;2.70;;;;;;;25.61;39.48;101705.41;4214285;28;20621;-75
2022/06/22 03:04:52;;;;;;;3.63;2.50;;;;;;;25.58;39.44;101700.41;4213034;28;20028;-73
2022/06/22 03:06:56;;;;;;;6.68;2.72;;;;;;;25.61;39.25;101711.03;4217601;28;20078;-74
2022/06/22 03:09:01;;;;;;;3.70;2.60;;;;;;;25.62;39.67;101714.69;4215141;28;20544;-77
2022/06/22 03:11:06;;;;;;;3.83;2.50;;;;;;;25.58;39.52;101708.81;4221048;28;20090;-75
2022/06/22 03:13:10;;;;;;;3.88;2.50;;;;;;;25.56;39.59;101703.50;4217124;28;20113;-75
2022/06/22 03:15:18;;;;;;;6.55;2.70;;;;;;;25.56;39.63;101711.06;4204371;28;20040;-75
2022/06/22 03:17:26;;;;;;;2.88;2.35;;;;;;;25.60;39.43;101715.78;4206099;28;20044;-75
2022/06/22 03:19:45;;;;;;;4.57;2.78;;;;;;;25.57;39.38;101704.34;4214198;28;20033;-75
2022/06/22 03:21:46;;;;;;;6.03;2.95;;;;;;;25.60;39.28;101698.16;4211683;28;20052;-71
2022/06/22 03:23:57;;;;;;;6.00;2.90;;;;;;;25.52;39.58;101684.75;4210916;28;20028;-75
2022/06/22 03:26:12;;;;;;;15.85;3.28;;;;;;;25.55;39.13;101692.59;4215927;28;20093;-76
2022/06/22 03:28:18;;;;;;;;;;;;;;;25.56;39.47;101691.44;4211715;28;20134;-76
2022/06/22 03:30:26;;;;;;;9.10;3.72;;;;;;;25.61;39.00;101691.41;4218469;28;20322;-76
2022/06/22 03:32:34;;;;;;;7.82;2.65;;;;;;;25.62;39.36;101692.25;4217682;28;20028;-74
2022/06/22 03:34:49;;;;;;;7.47;2.63;;;;;;;25.42;39.44;101665.25;4216352;28;20108;-75
2022/06/22 03:37:37;;;;;;;7.07;2.90;;;;;;;25.54;39.31;101677.75;4218269;28;20116;-75
2022/06/22 03:39:43;;;;;;;7.65;2.60;;;;;;;25.52;39.34;101667.94;4167945;28;20037;-75
2022/06/22 03:42:01;;;;;;;9.63;2.60;;;;;;;25.46;39.51;101669.13;4210748;28;20044;-76
2022/06/22 03:44:13;;;;;;;8.55;2.95;;;;;;;25.57;39.03;101681.94;4217304;28;20105;-76
2022/06/22 03:46:21;;;;;;;6.00;3.15;;;;;;;25.56;39.23;101674.63;4216403;28;20089;-76
2022/06/22 03:48:25;;;;;;;11.32;3.22;;;;;;;25.55;39.29;101672.97;4216089;28;20488;-76
2022/06/22 03:50:41;;;;;;;11.10;3.00;;;;;;;25.53;39.00;101676.09;4216387;28;20036;-77
2022/06/22 03:52:49;;;;;;;6.18;3.20;;;;;;;25.55;38.89;101668.19;4215562;28;20277;-76
2022/06/22 03:55:04;;;;;;;7.50;2.58;;;;;;;25.52;39.27;101663.22;4218220;28;20414;-77
2022/06/22 03:57:09;;;;;;;6.43;3.22;;;;;;;25.53;39.28;101658.44;4200563;28;20032;-76
2022/06/22 03:59:11;;;;;;;6.78;2.47;;;;;;;25.46;39.10;101655.13;4211204;28;20089;-77
2022/06/22 04:01:13;;;;;;;4.53;2.60;;;;;;;25.52;39.24;101662.34;4215220;28;20478;-77
2022/06/22 04:03:20;;;;;;;4.43;2.70;;;;;;;25.51;38.93;101655.91;4216227;28;20043;-76
2022/06/22 04:05:30;;;;;;;5.50;2.70;;;;;;;25.49;39.06;101657.34;4216674;28;20121;-75
2022/06/22 04:07:37;;;;;;;4.45;2.80;;;;;;;25.49;38.77;101662.94;4216764;28;20089;-76
2022/06/22 04:09:45;;;;;;;4.25;2.60;;;;;;;25.49;39.02;101658.19;4216035;28;20097;-76
2022/06/22 04:12:06;;;;;;;9.02;2.97;;;;;;;25.47;38.93;101656.78;4217306;28;20024;-76
2022/06/22 04:14:17;;;;;;;4.20;2.55;;;;;;;25.49;38.72;101646.13;4214940;28;20032;-76
2022/06/22 04:16:24;;;;;;;7.32;2.40;;;;;;;25.39;38.95;101629.44;4214950;28;20032;-76
2022/06/22 04:18:36;;;;;;;6.88;2.67;;;;;;;25.44;38.82;101651.78;4216454;28;20468;-77
2022/06/22 04:20:52;;;;;;;4.18;2.65;;;;;;;25.45;38.79;101662.69;4217313;28;20032;-77
2022/06/22 04:22:56;;;;;;;3.47;2.67;;;;;;;25.42;38.52;101656.84;4203286;28;20078;-75
2022/06/22 04:25:23;;;;;;;7.83;2.53;;;;;;;25.44;38.81;101657.41;4217075;28;20471;-75
2022/06/22 04:27:38;;;;;;;4.05;2.67;;;;;;;25.37;38.80;101642.88;4215331;28;20345;-75
2022/06/22 04:29:45;;;;;;;4.45;2.90;;;;;;;25.45;38.66;101650.66;4217625;28;20471;-77
2022/06/22 04:32:03;;;;;;;3.25;2.50;;;;;;;25.42;38.53;101645.63;4215109;28;20452;-75
2022/06/22 04:34:33;;;;;;;4.55;2.65;;;;;;;25.41;38.62;101638.38;4214449;28;20097;-75
2022/06/22 04:36:43;;;;;;;3.10;2.13;;;;;;;25.43;38.80;101631.34;4205471;28;20066;-75
2022/06/22 04:39:03;;;;;;;7.10;2.30;;;;;;;25.43;38.58;101620.16;4215198;28;20107;-76
2022/06/22 04:41:19;;;;;;;4.95;2.72;;;;;;;25.42;38.53;101618.44;4215905;28;20040;-77
2022/06/22 04:43:24;;;;;;;5.75;2.58;;;;;;;25.19;38.49;101569.66;4216743;28;20035;-77
2022/06/22 04:45:38;;;;;;;5.90;2.80;;;;;;;25.41;38.75;101604.75;4217012;28;20417;-77
2022/06/22 04:47:39;;;;;;;3.42;2.42;;;;;;;25.38;38.65;101599.72;4214430;28;20097;-76
2022/06/22 04:49:49;;;;;;;3.53;2.38;;;;;;;25.41;38.42;101599.13;4217389;28;20047;-73
2022/06/22 04:52:15;;;;;;;4.70;2.47;;;;;;;25.38;38.82;101594.94;4215875;28;20016;-75
2022/06/22 04:54:40;;;;;;;6.00;2.47;;;;;;;25.33;38.67;101593.03;4216199;28;20543;-76
2022/06/22 04:56:46;;;;;;;4.88;2.40;;;;;;;25.37;38.69;101586.84;4209242;28;20028;-75
2022/06/22 04:58:54;;;;;;;5.10;2.75;;;;;;;25.40;38.74;101597.47;4212550;28;20180;-75
2022/06/22 05:00:57;;;;;;;3.05;2.67;;;;;;;25.40;38.53;101594.69;4200152;28;20067;-76
2022/06/22 05:03:06;;;;;;;2.58;2.25;;;;;;;25.37;38.84;101586.84;4214537;28;20028;-75
2022/06/22 05:05:30;;;;;;;4.60;2.58;;;;;;;25.25;38.42;101574.09;4216900;28;20044;-74
2022/06/22 05:07:37;;;;;;;4.20;2.63;;;;;;;25.35;38.40;101590.78;4214871;28;20050;-76
2022/06/22 05:10:03;;;;;;;6.57;2.88;;;;;;;25.36;38.78;101591.63;4215290;28;20040;-75
2022/06/22 05:12:16;;;;;;;3.97;2.70;;;;;;;25.33;38.44;101593.03;4219091;28;20051;-74
2022/06/22 05:14:28;;;;;;;3.22;2.50;;;;;;;25.26;38.50;101575.75;4221990;28;20036;-75
2022/06/22 05:16:33;;;;;;;5.45;2.60;;;;;;;25.12;38.24;101552.38;4218434;28;20024;-75
2022/06/22 05:18:40;;;;;;;4.05;2.30;;;;;;;25.29;38.31;101575.19;4220912;28;20035;-75
2022/06/22 05:20:58;;;;;;;3.45;2.65;;;;;;;25.34;38.72;101589.13;4221732;28;20085;-74
2022/06/22 05:23:02;;;;;;;3.10;2.40;;;;;;;25.28;38.32;101573.47;4221186;28;20032;-75
2022/06/22 05:25:08;;;;;;;3.78;2.70;;;;;;;25.31;38.32;101584.09;4219844;28;20045;-75
2022/06/22 05:27:13;;;;;;;3.22;2.50;;;;;;;25.32;38.29;101585.78;4218863;28;20441;-76
2022/06/22 05:29:25;;;;;;;4.30;2.40;;;;;;;25.32;38.23;101574.56;4215841;28;20043;-77
2022/06/22 05:31:34;;;;;;;3.67;2.72;;;;;;;25.31;38.59;101572.91;4216419;28;20096;-76
2022/06/22 05:33:39;;;;;;;2.80;2.30;;;;;;;25.32;38.32;101573.72;4216499;28;20086;-76
2022/06/22 05:35:48;;;;;;;6.38;2.58;;;;;;;25.29;38.32;101563.09;4214597;28;20040;-75
2022/06/22 05:37:55;;;;;;;3.88;2.92;;;;;;;25.30;38.44;101564.81;4215889;28;20098;-76
2022/06/22 05:39:57;;;;;;;2.97;2.20;;;;;;;25.24;38.20;101554.75;4214181;28;20040;-76
2022/06/22 05:42:01;;;;;;;3.30;2.45;;;;;;;25.28;38.16;101556.66;4214656;28;20089;-76
2022/06/22 05:44:11;;;;;;;4.75;2.60;;;;;;;25.28;38.25;101553.88;4215885;28;20028;-76
2022/06/22 05:46:15;;;;;;;2.55;2.17;;;;;;;25.29;38.45;101552.75;4215963;28;20043;-76
2022/06/22 05:48:23;;;;;;;3.10;2.25;;;;;;;25.25;38.09;101548.88;4214617;28;20491;-76
2022/06/22 05:50:59;;;;;;;4.55;2.55;;;;;;;25.26;38.57;101549.72;4215623;28;20036;-76
2022/06/22 05:53:08;;;;;;;;;;;;;;;25.26;38.05;101547.75;4215085;28;20032;-77
2022/06/22 05:55:39;;;;;;;4.80;2.30;;;;;;;25.30;37.99;101548.81;4209809;28;19970;-76
2022/06/22 05:57:56;;;;;;;3.67;2.53;;;;;;;25.28;37.93;101544.63;4196948;28;20266;-77
2022/06/22 06:00:02;;;;;;;2.92;2.30;;;;;;;25.25;38.09;101539.66;4205708;28;20057;-76
2022/06/22 06:02:26;;;;;;;3.88;2.80;;;;;;;25.27;38.15;101542.97;4214022;28;20105;-76
2022/06/22 06:04:41;;;;;;;6.30;2.70;;;;;;;25.24;38.04;101538.78;4213275;28;20032;-77
2022/06/22 06:06:44;;;;;;;5.50;2.45;;;;;;;25.25;38.13;101537.69;4215502;28;20056;-76
2022/06/22 06:08:54;;;;;;;2.72;2.22;;;;;;;25.24;38.07;101538.78;4214928;28;20094;-76
2022/06/22 06:10:57;;;;;;;3.38;2.53;;;;;;;25.24;38.22;101540.75;4213160;28;20032;-77
2022/06/22 06:13:07;;;;;;;3.80;2.70;;;;;;;25.22;38.11;101535.47;4213732;28;20048;-76
2022/06/22 06:15:12;;;;;;;2.65;2.22;;;;;;;25.08;38.03;101512.91;4211115;28;20093;-77
2022/06/22 06:17:28;;;;;;;;;;;;;;;25.20;38.33;101537.75;4215404;28;20040;-76
2022/06/22 06:19:34;;;;;;;3.50;2.40;;;;;;;25.26;38.12;101530.94;4213093;28;19915;-76
2022/06/22 06:21:37;;;;;;;2.70;2.38;;;;;;;25.25;38.02;101518.06;4215189;28;20105;-76
2022/06/22 06:23:42;;;;;;;4.63;2.70;;;;;;;25.20;37.79;101526.53;4214933;28;20105;-76
2022/06/22 06:28:14;;;;;;;;;;;;;;;25.19;38.16;101530.44;4214927;28;20058;-77
2022/06/22 06:30:24;;;;;;;;;;;;;;;25.22;37.79;101532.66;4212772;28;19946;-76
2022/06/22 06:32:57;;;;;;;4.13;2.28;;;;;;;25.24;37.92;101538.78;4214950;28;19916;-76
2022/06/22 06:35:12;;;;;;;2.75;2.05;;;;;;;25.24;37.52;101540.75;4210438;28;20191;-76
2022/06/22 06:37:17;;;;;;;3.22;2.47;;;;;;;25.16;37.87;101527.41;4198119;28;20078;-76
2022/06/22 06:39:23;;;;;;;5.40;2.40;;;;;;;25.19;37.78;101536.03;4211532;28;20044;-77
2022/06/22 06:41:33;;;;;;;2.90;2.50;;;;;;;25.15;37.69;101537.75;4213696;28;20020;-77
2022/06/22 06:43:40;;;;;;;2.85;2.30;;;;;;;25.15;37.79;101540.56;4213912;28;20083;-77
2022/06/22 06:45:44;;;;;;;1.90;1.80;;;;;;;25.13;37.45;101540.03;4219052;28;20044;-76
2022/06/22 06:47:51;;;;;;;3.33;2.47;;;;;;;25.12;37.53;101534.75;4218206;28;20028;-77
2022/06/22 06:50:07;;;;;;;3.95;2.25;;;;;;;25.09;37.92;101525.78;4218958;28;20108;-77
2022/06/22 06:52:12;;;;;;;2.40;2.20;;;;;;;25.10;37.43;101523.81;4218811;28;20023;-77
2022/06/22 06:54:22;;;;;;;2.75;2.53;;;;;;;25.08;37.46;101526.09;4218772;28;20441;-77
2022/06/22 06:56:41;;;;;;;3.50;2.75;;;;;;;24.99;37.70;101514.66;4207785;28;20089;-76
2022/06/22 06:58:49;;;;;;;4.95;2.40;;;;;;;25.08;37.51;101523.28;4206338;28;20070;-77
2022/06/22 07:00:51;;;;;;;2.70;2.22;;;;;;;25.06;37.87;101515.16;4218259;28;20102;-77
2022/06/22 07:02:53;;;;;;;3.60;2.33;;;;;;;24.96;37.64;101504.03;4217668;28;20052;-77
2022/06/22 07:04:56;;;;;;;2.30;2.03;;;;;;;25.06;37.70;101520.75;4218386;28;20036;-77
2022/06/22 07:07:42;;;;;;;2.53;2.33;;;;;;;25.03;37.84;101524.16;4217805;28;20048;-77
2022/06/22 07:09:44;;;;;;;3.85;2.35;;;;;;;25.07;37.69;101521.59;4197011;28;20138;-76
2022/06/22 07:11:48;;;;;;;2.33;2.13;;;;;;;25.06;37.72;101525.50;4215580;28;20035;-77
2022/06/22 07:13:54;;;;;;;3.10;2.37;;;;;;;25.05;37.73;101523.84;4216188;28;20066;-77
2022/06/22 07:16:14;;;;;;;2.45;2.25;;;;;;;25.01;37.53;101519.94;4206893;28;20812;-76
2022/06/22 07:18:50;;;;;;;2.65;2.15;;;;;;;25.04;37.64;101522.16;4218563;28;20048;-77
2022/06/22 07:21:07;;;;;;;2.83;2.17;;;;;;;25.03;37.46;101517.72;4169910;28;20118;-77
2022/06/22 07:23:55;;;;;;;2.47;2.28;;;;;;;25.01;37.45;101511.56;4196876;28;20122;-76
2022/06/22 07:26:11;;;;;;;3.05;2.60;;;;;;;25.00;37.65;101505.13;4184494;28;20457;-76
2022/06/22 07:28:24;;;;;;;2.63;2.40;;;;;;;25.03;37.52;101500.91;4214056;28;20440;-76
2022/06/22 07:30:37;;;;;;;2.22;2.03;;;;;;;25.00;37.65;101493.91;4218361;28;20032;-77
2022/06/22 07:32:59;;;;;;;3.72;2.50;;;;;;;25.00;37.55;101493.09;4218939;28;20497;-77
2022/06/22 07:35:30;;;;;;;2.30;2.10;;;;;;;24.90;37.79;101482.00;4215670;28;20040;-76
2022/06/22 07:37:40;;;;;;;2.38;2.15;;;;;;;24.99;37.87;101491.44;4218600;28;20097;-77
2022/06/22 07:39:55;;;;;;;2.78;2.42;;;;;;;25.00;37.86;101487.50;4218402;28;20040;-76
2022/06/22 07:41:59;;;;;;;3.20;2.65;;;;;;;25.00;37.43;101479.09;4218635;28;20126;-77
2022/06/22 07:44:41;;;;;;;2.72;2.35;;;;;;;24.96;37.86;101476.03;4218809;28;20452;-77
2022/06/22 07:47:08;;;;;;;2.33;2.10;;;;;;;24.98;37.68;101484.16;4191135;28;20462;-77
2022/06/22 07:49:18;;;;;;;4.80;2.28;;;;;;;24.98;37.39;101473.78;4186123;28;20041;-76
2022/06/22 07:51:28;;;;;;;2.65;2.45;;;;;;;24.97;37.77;101482.47;4197662;28;20040;-77
2022/06/22 07:53:56;;;;;;;2.70;2.50;;;;;;;24.88;37.86;101459.03;4216771;28;20048;-76
2022/06/22 07:56:31;;;;;;;2.72;2.40;;;;;;;24.94;37.45;101469.91;4213765;28;20093;-77
2022/06/22 07:58:45;;;;;;;3.08;2.50;;;;;;;24.98;37.52;101461.78;4216120;28;20140;-77
2022/06/22 08:00:51;;;;;;;2.53;2.33;;;;;;;24.97;37.49;101465.66;4214689;28;20111;-77
2022/06/22 08:03:06;;;;;;;2.38;2.15;;;;;;;24.96;37.53;101455.63;4215719;28;20336;-77
2022/06/22 08:05:14;;;;;;;2.63;2.20;;;;;;;24.94;37.46;101455.91;4211893;28;20540;-77
2022/06/22 08:07:24;;;;;;;2.65;2.33;;;;;;;24.75;37.67;101413.03;4215872;28;20090;-76
2022/06/22 08:09:49;;;;;;;3.70;2.50;;;;;;;24.94;37.47;101460.69;4205864;28;20081;-77
2022/06/22 08:12:22;;;;;;;2.67;2.08;;;;;;;24.93;37.77;101453.44;4213314;28;20089;-77
2022/06/22 08:14:34;;;;;;;2.63;2.30;;;;;;;24.93;37.39;101439.44;4209640;28;20063;-76
2022/06/22 08:16:48;;;;;;;3.10;2.10;;;;;;;24.92;37.48;101444.16;4209237;28;20066;-76
2022/06/22 08:18:50;;;;;;;2.80;2.60;;;;;;;24.93;37.29;101431.03;4199972;28;20101;-76
2022/06/22 08:20:57;;;;;;;2.78;2.28;;;;;;;24.88;37.47;101422.66;4199960;28;20051;-76
2022/06/22 08:23:04;;;;;;;2.25;1.90;;;;;;;24.83;37.39;101424.41;4198911;28;20572;-76
2022/06/22 08:25:07;;;;;;;2.53;2.22;;;;;;;24.90;37.35;101431.59;4209314;28;20430;-76
2022/06/22 08:27:16;;;;;;;2.40;2.20;;;;;;;24.89;37.08;101435.53;4216254;28;20036;-77
2022/06/22 08:29:22;;;;;;;2.85;2.47;;;;;;;24.85;37.24;101430.53;4216153;28;20028;-77
2022/06/22 08:31:29;;;;;;;2.40;2.08;;;;;;;24.84;37.06;101428.03;4214731;28;20536;-77
2022/06/22 08:33:47;;;;;;;2.88;2.40;;;;;;;24.77;37.43;101427.53;4213719;28;20035;-77
2022/06/22 08:36:17;;;;;;;4.40;2.30;;;;;;;24.84;37.68;101428.88;4207150;28;20016;-76
2022/06/22 08:38:31;;;;;;;2.50;2.30;;;;;;;24.87;37.37;101426.59;4205792;28;20036;-77
2022/06/22 08:40:54;;;;;;;2.70;2.50;;;;;;;24.85;37.52;101415.69;4209982;28;20048;-75
2022/06/22 08:43:09;;;;;;;2.72;2.22;;;;;;;24.85;37.55;101413.72;4202961;28;20036;-74
2022/06/22 08:45:48;;;;;;;2.45;2.20;;;;;;;24.81;37.50;101406.22;4208462;28;20105;-74
2022/06/22 08:48:08;;;;;;;2.75;2.30;;;;;;;24.85;37.54;101408.13;4192910;28;20041;-77
2022/06/22 08:50:31;;;;;;;3.15;2.38;;;;;;;24.84;37.25;101414.88;4216008;28;20082;-77
2022/06/22 08:53:10;;;;;;;3.30;2.60;;;;;;;24.84;37.31;101425.25;4214078;28;20052;-77
2022/06/22 08:55:27;;;;;;;2.80;2.55;;;;;;;24.79;37.54;101425.28;4229227;28;20092;-75
2022/06/22 08:57:55;;;;;;;3.50;2.42;;;;;;;24.82;37.43;101421.88;4214915;28;20409;-77
2022/06/22 09:00:19;;;;;;;2.35;2.15;;;;;;;24.78;37.26;101413.25;4213060;28;20048;-74
2022/06/22 09:02:57;;;;;;;4.32;2.40;;;;;;;24.80;37.38;101413.78;4210703;28;20036;-75
2022/06/22 09:05:07;;;;;;;2.80;2.35;;;;;;;24.81;37.06;101421.06;4205242;28;20043;-77
2022/06/22 09:07:44;;;;;;;2.95;2.30;;;;;;;24.79;37.19;101420.53;4213468;28;20114;-74
2022/06/22 09:09:48;;;;;;;3.13;2.22;;;;;;;24.80;37.31;101427.78;4208034;28;20445;-77
2022/06/22 09:12:27;;;;;;;3.37;2.27;;;;;;;24.79;37.39;101436.50;4214513;28;20501;-74
2022/06/22 09:14:46;;;;;;;3.38;2.33;;;;;;;24.79;37.41;101419.69;4200034;28;20288;-74
2022/06/22 09:17:02;;;;;;;2.17;1.98;;;;;;;24.79;37.07;101431.72;4211713;28;20036;-76
2022/06/22 09:19:07;;;;;;;3.03;2.33;;;;;;;24.79;37.28;101422.50;4213608;28;20043;-76
2022/06/22 09:21:28;;;;;;;2.33;2.13;;;;;;;24.77;37.42;101433.97;4212665;28;20433;-76
2022/06/22 09:23:41;;;;;;;2.70;2.50;;;;;;;24.71;37.07;101418.38;4212628;28;20085;-77
2022/06/22 09:25:50;;;;;;;2.70;2.20;;;;;;;24.68;37.35;101413.34;4205711;28;20109;-76
2022/06/22 09:28:16;;;;;;;2.58;2.38;;;;;;;24.75;37.46;101425.03;4214484;28;20101;-77
2022/06/22 09:30:49;;;;;;;3.13;2.35;;;;;;;24.75;37.03;101425.03;4213132;28;20040;-77
2022/06/22 09:32:58;;;;;;;3.80;2.33;;;;;;;24.74;37.30;101414.97;4211042;28;20099;-77
2022/06/22 09:35:11;;;;;;;3.20;2.67;;;;;;;24.75;37.22;101405.44;4208940;28;20035;-77
2022/06/22 09:37:30;;;;;;;2.55;2.35;;;;;;;24.74;37.09;101401.00;4214507;28;20123;-76
2022/06/22 09:39:57;;;;;;;2.55;2.35;;;;;;;24.72;37.32;101406.03;4212421;28;20101;-77
2022/06/22 09:42:14;;;;;;;2.63;2.42;;;;;;;24.72;37.29;101414.44;4213173;28;20097;-76
2022/06/22 09:44:26;;;;;;;3.25;2.60;;;;;;;24.74;37.09;101414.13;4213376;28;20036;-76
2022/06/22 09:46:30;;;;;;;2.47;2.28;;;;;;;24.71;36.84;101415.56;4215515;28;20031;-77
2022/06/22 09:49:02;;;;;;;2.70;2.50;;;;;;;24.64;37.20;101406.66;4213141;28;20044;-76
2022/06/22 09:51:24;;;;;;;3.20;2.33;;;;;;;24.69;37.01;101420.59;4214362;28;20056;-76
2022/06/22 09:53:41;;;;;;;2.95;2.67;;;;;;;24.71;37.13;101414.72;4207161;28;20086;-76
2022/06/22 09:58:36;;;;;;;2.30;2.10;;;;;;;24.67;36.99;101394.06;4214408;28;20105;-76
2022/06/22 10:00:42;;;;;;;2.28;2.00;;;;;;;24.70;37.03;101394.31;4208491;28;20036;-77
2022/06/22 10:02:56;;;;;;;3.30;2.60;;;;;;;24.71;37.00;101395.97;4212674;28;20441;-76
2022/06/22 10:05:34;;;;;;;2.22;2.03;;;;;;;24.66;37.13;101393.22;4214140;28;20048;-77
2022/06/22 10:07:44;;;;;;;2.50;2.30;;;;;;;24.69;36.87;101394.59;4210458;28;20040;-77
2022/06/22 10:09:48;;;;;;;3.22;2.53;;;;;;;24.68;37.06;101399.34;4212899;28;20479;-77
2022/06/22 10:12:25;;;;;;;3.05;2.47;;;;;;;24.65;36.98;101394.38;4212791;28;20040;-76
2022/06/22 10:14:35;;;;;;;2.58;2.38;;;;;;;24.67;37.06;101399.66;4212104;28;20048;-77
2022/06/22 10:17:15;;;;;;;2.38;2.08;;;;;;;24.61;36.88;101384.91;4214361;28;20027;-77
2022/06/22 10:19:54;;;;;;;2.50;2.30;;;;;;;24.65;37.18;101394.38;4208575;28;20056;-77
2022/06/22 10:22:23;;;;;;;3.15;2.70;;;;;;;24.65;36.91;101391.56;4212733;28;20093;-77
2022/06/22 10:25:05;;;;;;;2.50;2.30;;;;;;;24.64;36.77;101389.06;4212404;28;20097;-77
2022/06/22 10:27:42;;;;;;;2.50;2.28;;;;;;;24.64;36.72;101387.09;4198315;28;20033;-77
2022/06/22 10:30:10;;;;;;;2.50;2.30;;;;;;;24.62;36.88;101392.16;4204785;28;20078;-77
2022/06/22 10:32:42;;;;;;;2.35;2.13;;;;;;;24.63;37.02;101387.38;4209894;28;20118;-77
2022/06/22 10:35:04;;;;;;;2.65;2.30;;;;;;;24.39;37.02;101356.59;4214792;28;20447;-76
2022/06/22 10:37:21;;;;;;;4.45;2.30;;;;;;;24.56;36.94;101391.38;4213844;28;20036;-77